Terminal Aerodrome Forecast
Issued by NWS

Home | Current Version | Previous Version | Text Only | Print | Product List | Glossary On
Versions: 1 2 3 4 5 6 7 8 9 10 11 12 13 14 15 16 17 18 19 20 21 22 23 24 25 26 27 28 29 30 31 32 33 34 35 36 37 38 39 40 41 42 43 44 45 46 47 48 49 50
000
FTUS45 KBOU 270724 AAA
TAFAPA
TAF AMD
KAPA 270724Z 2707/2806 17007KT P6SM SCT140 SCT200
     FM271000 VRB05KT P6SM FEW025 FEW140 SCT200
     FM271300 30005KT P6SM SCT025
      TEMPO 2713/2716 SCT010 BKN025
     FM271600 VRB05KT P6SM SCT025 BKN040
     FM272000 13010KT P6SM VCTS BKN060CB
      TEMPO 2721/2801 VRB20G35KT 4SM +TSRA BKN040CB
     FM280300 15011KT P6SM FEW040 BKN070=

USA.gov is the U.S. government's official web portal to all federal, state and local government web resources and services.